Ana Sayfa
METAR-TAF:

METAR-TAF

Havaalanları :

Childress, Teksas, Amerika Birleşik Devletleri

Enlem: 34-25-39N, Boylam: 100-17-00W, yükseklik: 595 m

Güncel hava durumu gözlemi

Rapor saat 00:53 UTC de 28 dakika önce yapıldı.
Rüzgar güney/güneydoğudan 9 kt
Sıcaklık 33°C
Nem 34%
Basınç 1012 hPa
Görüş mesafesi: 16.1 km
Açık gökyüzü

METAR: KCDS 220053Z AUTO 16009KT 10SM CLR 33/15 A2989 RMK AO2 SLP093 T03330150

Saat: 20:21 (01:21 UTC)

Tahmin

Rapor saat 00:01 UTC de 1 saat ve 20 dakika önce yapıldı.
Ayın 22'si saat 00 UTC'den ayın 22'si saat 24 UTC'ye kadar geçerli Tahmin
Rüzgar güney/güneydoğudan 11 kt
Görüş mesafesi: 10 km
25000 ft yükseklikte az bulutlu

TAF: KCDS 220001Z 2200/2224 16011KT P6SM FEW250

4.000'den fazla havaalanı için hava durumu gözlemleri ve tahminleri (METAR ve TAF raporları).

Kullanılabilir istasyonlar harita üzerinde sarı ve kırmızı noktalarla gösterilir.

İstasyonun adını görmek için fareyi noktanın üzerinde gezdirin.

Sonrasında hava gözlem ve tahminlerini görmek için tıklayın.

Haritayı değiştirmek için: yaklaştırmak için siyah artı işaretli yeşil düğmeye ve uzaklaştırmak için de eksi işaretli düğmeye hızla tıklayın; bitişik haritalar için yeşil okları kullanın.


METAR-TAF: